VLG62TA LEAS-LEPA
Flight info
| Callsign | VLG62TA |
|---|---|
| Flight time | 1h 25m |
| Altitude | 24000 |
| Route | LEVNO Q210 SNR/N0450F330 DCT CALCE DCT BLV/N0449F340 M601 BCN/N0452F330 DCT LORES |
| Aircraft | A21N/M-SDE2E3FGHIRWXY/LB1 |
Departure
| Time | 2026-04-25 14:02 |
|---|---|
| Airport | Asturias Airport (LEAS) |
Arrival
| Time | 2026-04-25 15:27 |
|---|---|
| Airport | Palma de Mallorca Airport (LEPA) |
| Time | Latitude | Longitude | Altitude | Speed | Heading |
|---|---|---|---|---|---|
| 2026-04-25 13:27 | 43.56016 | -6.03264 | 429 ft | 0 kts | 243° |
| 2026-04-25 13:49 | 43.56018 | -6.03258 | 429 ft | 3 kts | 239° |
| 2026-04-25 13:49 | 43.56029 | -6.03241 | 418 ft | 3 kts | 187° |
| 2026-04-25 13:50 | 43.56044 | -6.03246 | 416 ft | 3 kts | 140° |
| 2026-04-25 13:50 | 43.56058 | -6.03265 | 419 ft | 3 kts | 128° |
| 2026-04-25 13:50 | 43.56070 | -6.03288 | 420 ft | 3 kts | 117° |
| 2026-04-25 13:50 | 43.56075 | -6.03304 | 418 ft | 0 kts | 108° |
| 2026-04-25 13:56 | 43.56074 | -6.03279 | 429 ft | 6 kts | 81° |
| 2026-04-25 13:56 | 43.56104 | -6.03235 | 429 ft | 5 kts | 16° |
| 2026-04-25 13:56 | 43.56137 | -6.03257 | 423 ft | 7 kts | 307° |
| 2026-04-25 13:57 | 43.56161 | -6.03347 | 426 ft | 13 kts | 287° |
| 2026-04-25 13:57 | 43.56171 | -6.03391 | 424 ft | 16 kts | 287° |
| 2026-04-25 13:57 | 43.56247 | -6.03710 | 422 ft | 24 kts | 288° |
| 2026-04-25 13:57 | 43.56302 | -6.03935 | 420 ft | 26 kts | 289° |
| 2026-04-25 13:58 | 43.56361 | -6.04186 | 420 ft | 28 kts | 287° |
| 2026-04-25 13:58 | 43.56411 | -6.04408 | 415 ft | 24 kts | 288° |
| 2026-04-25 13:58 | 43.56466 | -6.04628 | 428 ft | 24 kts | 296° |
| 2026-04-25 13:58 | 43.56539 | -6.04722 | 422 ft | 0 kts | 334° |
| 2026-04-25 14:00 | 43.56542 | -6.04724 | 419 ft | 3 kts | 334° |
| 2026-04-25 14:00 | 43.56581 | -6.04750 | 422 ft | 9 kts | 336° |
| 2026-04-25 14:00 | 43.56641 | -6.04734 | 424 ft | 11 kts | 33° |
| 2026-04-25 14:01 | 43.56657 | -6.04695 | 427 ft | 2 kts | 113° |
| 2026-04-25 14:01 | 43.56596 | -6.04467 | 419 ft | 62 kts | 107° |
| 2026-04-25 14:01 | 43.56375 | -6.03538 | 418 ft | 142 kts | 107° |
| 2026-04-25 14:01 | 43.56025 | -6.02093 | 930 ft | 167 kts | 106° |
| 2026-04-25 14:02 | 43.55655 | -6.00597 | 1886 ft | 162 kts | 104° |
| 2026-04-25 14:02 | 43.55308 | -5.99093 | 2606 ft | 177 kts | 106° |
| 2026-04-25 14:02 | 43.54907 | -5.97361 | 2898 ft | 204 kts | 107° |
| 2026-04-25 14:02 | 43.54756 | -5.96711 | 2998 ft | 213 kts | 107° |
| 2026-04-25 14:03 | 43.53937 | -5.93254 | 3876 ft | 238 kts | 107° |
| 2026-04-25 14:03 | 43.53583 | -5.91735 | 4375 ft | 252 kts | 105° |
| 2026-04-25 14:03 | 43.53325 | -5.89352 | 5500 ft | 257 kts | 88° |
| 2026-04-25 14:03 | 43.53536 | -5.86003 | 6951 ft | 271 kts | 86° |
| 2026-04-25 14:04 | 43.53621 | -5.84258 | 7664 ft | 276 kts | 88° |
| 2026-04-25 14:04 | 43.53726 | -5.81588 | 8821 ft | 282 kts | 89° |
| 2026-04-25 14:04 | 43.53818 | -5.78842 | 9660 ft | 288 kts | 89° |
| 2026-04-25 14:04 | 43.53904 | -5.76079 | 10087 ft | 292 kts | 88° |
| 2026-04-25 14:05 | 43.53988 | -5.73262 | 10495 ft | 297 kts | 89° |
| 2026-04-25 14:05 | 43.54072 | -5.70376 | 11507 ft | 301 kts | 88° |
| 2026-04-25 14:05 | 43.54158 | -5.67506 | 12715 ft | 301 kts | 87° |
| 2026-04-25 14:05 | 43.54514 | -5.64661 | 13895 ft | 303 kts | 71° |
| 2026-04-25 14:06 | 43.55545 | -5.62058 | 14677 ft | 319 kts | 53° |
| 2026-04-25 14:06 | 43.57023 | -5.59645 | 15061 ft | 345 kts | 47° |
| 2026-04-25 14:06 | 43.58710 | -5.57130 | 15518 ft | 365 kts | 47° |
| 2026-04-25 14:06 | 43.60461 | -5.54522 | 16299 ft | 374 kts | 47° |
| 2026-04-25 14:07 | 43.62211 | -5.51885 | 17176 ft | 379 kts | 47° |
| 2026-04-25 14:07 | 43.64002 | -5.49164 | 18079 ft | 384 kts | 47° |
| 2026-04-25 14:07 | 43.65809 | -5.46403 | 18894 ft | 389 kts | 47° |
| 2026-04-25 14:07 | 43.67631 | -5.43611 | 19660 ft | 393 kts | 47° |
| 2026-04-25 14:08 | 43.69416 | -5.40704 | 20406 ft | 398 kts | 52° |
| 2026-04-25 14:08 | 43.70803 | -5.37368 | 21149 ft | 404 kts | 66° |
| 2026-04-25 14:08 | 43.71521 | -5.33593 | 21813 ft | 411 kts | 83° |
| 2026-04-25 14:08 | 43.71468 | -5.29647 | 22511 ft | 417 kts | 96° |
| 2026-04-25 14:09 | 43.70971 | -5.25665 | 23267 ft | 422 kts | 101° |
| 2026-04-25 14:09 | 43.70283 | -5.21707 | 23897 ft | 424 kts | 103° |
| 2026-04-25 14:09 | 43.69507 | -5.17756 | 24149 ft | 425 kts | 104° |
| 2026-04-25 14:09 | 43.68977 | -5.15144 | 24201 ft | 426 kts | 104° |
| 2026-04-25 14:10 | 43.67919 | -5.09904 | 24203 ft | 428 kts | 104° |
| 2026-04-25 14:10 | 43.67136 | -5.05917 | 24204 ft | 429 kts | 104° |
| 2026-04-25 14:10 | 43.66368 | -5.01915 | 24205 ft | 429 kts | 104° |
| 2026-04-25 14:10 | 43.65623 | -4.97970 | 24206 ft | 429 kts | 103° |
| 2026-04-25 14:11 | 43.64876 | -4.93971 | 24211 ft | 429 kts | 103° |
| 2026-04-25 14:11 | 43.64132 | -4.89977 | 24206 ft | 429 kts | 103° |
| 2026-04-25 14:11 | 43.63386 | -4.85978 | 24209 ft | 429 kts | 103° |
| 2026-04-25 14:11 | 43.62642 | -4.81997 | 24209 ft | 429 kts | 103° |
| 2026-04-25 14:12 | 43.61895 | -4.78013 | 24207 ft | 429 kts | 103° |
| 2026-04-25 14:12 | 43.61145 | -4.74028 | 24208 ft | 429 kts | 103° |
| 2026-04-25 14:12 | 43.60400 | -4.70082 | 24208 ft | 428 kts | 103° |
| 2026-04-25 14:12 | 43.59645 | -4.66089 | 24208 ft | 429 kts | 103° |
| 2026-04-25 14:13 | 43.58889 | -4.62097 | 24210 ft | 429 kts | 104° |
| 2026-04-25 14:13 | 43.58141 | -4.58159 | 24208 ft | 428 kts | 104° |
| 2026-04-25 14:13 | 43.57385 | -4.54180 | 24210 ft | 430 kts | 105° |
| 2026-04-25 14:13 | 43.56622 | -4.50176 | 24210 ft | 432 kts | 105° |
| 2026-04-25 14:14 | 43.55853 | -4.46152 | 24203 ft | 432 kts | 105° |
| 2026-04-25 14:14 | 43.55091 | -4.42175 | 24204 ft | 432 kts | 105° |
| 2026-04-25 14:14 | 43.54317 | -4.38144 | 24202 ft | 432 kts | 105° |
| 2026-04-25 14:14 | 43.53554 | -4.34174 | 24206 ft | 433 kts | 105° |
| 2026-04-25 14:15 | 43.52779 | -4.30155 | 24204 ft | 433 kts | 105° |
| 2026-04-25 14:15 | 43.52262 | -4.27487 | 24204 ft | 433 kts | 105° |
| 2026-04-25 14:15 | 43.51219 | -4.22111 | 24201 ft | 433 kts | 106° |
| 2026-04-25 14:15 | 43.50448 | -4.18147 | 24199 ft | 433 kts | 106° |
| 2026-04-25 14:16 | 43.49663 | -4.14121 | 24197 ft | 433 kts | 106° |
| 2026-04-25 14:16 | 43.48882 | -4.10117 | 24193 ft | 433 kts | 106° |
| 2026-04-25 14:16 | 43.48093 | -4.06083 | 24190 ft | 433 kts | 106° |
| 2026-04-25 14:16 | 43.47316 | -4.02120 | 24188 ft | 433 kts | 106° |
| 2026-04-25 14:17 | 43.46524 | -3.98087 | 24185 ft | 433 kts | 106° |
| 2026-04-25 14:17 | 43.45747 | -3.94133 | 24185 ft | 433 kts | 106° |
| 2026-04-25 14:17 | 43.44964 | -3.90088 | 24184 ft | 433 kts | 105° |
| 2026-04-25 14:17 | 43.44292 | -3.86097 | 24184 ft | 433 kts | 103° |
| 2026-04-25 14:18 | 43.43679 | -3.82011 | 24186 ft | 433 kts | 102° |
| 2026-04-25 14:18 | 43.43107 | -3.77982 | 24184 ft | 434 kts | 102° |
| 2026-04-25 14:18 | 43.42533 | -3.73889 | 24198 ft | 435 kts | 102° |
| 2026-04-25 14:18 | 43.41953 | -3.69798 | 24198 ft | 435 kts | 102° |
| 2026-04-25 14:19 | 43.41362 | -3.65701 | 24190 ft | 435 kts | 103° |
| 2026-04-25 14:19 | 43.40765 | -3.61617 | 24192 ft | 435 kts | 103° |
| 2026-04-25 14:19 | 43.40169 | -3.57587 | 24191 ft | 435 kts | 103° |
| 2026-04-25 14:19 | 43.39562 | -3.53513 | 24191 ft | 435 kts | 103° |
| 2026-04-25 14:20 | 43.38950 | -3.49421 | 24192 ft | 435 kts | 103° |
| 2026-04-25 14:20 | 43.38543 | -3.46709 | 24189 ft | 435 kts | 103° |
| 2026-04-25 14:20 | 43.37722 | -3.41251 | 24179 ft | 435 kts | 103° |
| 2026-04-25 14:20 | 43.37115 | -3.37228 | 24182 ft | 434 kts | 103° |
| 2026-04-25 14:21 | 43.36498 | -3.33145 | 24180 ft | 434 kts | 103° |
| 2026-04-25 14:21 | 43.35879 | -3.29062 | 24186 ft | 434 kts | 103° |
| 2026-04-25 14:21 | 43.35268 | -3.25041 | 24184 ft | 434 kts | 103° |
| 2026-04-25 14:21 | 43.34649 | -3.20966 | 24184 ft | 434 kts | 103° |
| 2026-04-25 14:22 | 43.34028 | -3.16898 | 24185 ft | 434 kts | 103° |
| 2026-04-25 14:22 | 43.33413 | -3.12884 | 24186 ft | 434 kts | 103° |
| 2026-04-25 14:22 | 43.32790 | -3.08820 | 24185 ft | 434 kts | 103° |
| 2026-04-25 14:22 | 43.32164 | -3.04749 | 24178 ft | 434 kts | 103° |
| 2026-04-25 14:23 | 43.31539 | -3.00693 | 24184 ft | 434 kts | 103° |
| 2026-04-25 14:23 | 43.30889 | -2.96686 | 24183 ft | 434 kts | 107° |
| 2026-04-25 14:23 | 43.29820 | -2.92803 | 24186 ft | 432 kts | 118° |
| 2026-04-25 14:23 | 43.28421 | -2.89139 | 24184 ft | 431 kts | 121° |
| 2026-04-25 14:24 | 43.26926 | -2.85615 | 24184 ft | 431 kts | 123° |
| 2026-04-25 14:24 | 43.25364 | -2.82143 | 24182 ft | 430 kts | 124° |
| 2026-04-25 14:24 | 43.23752 | -2.78657 | 24175 ft | 430 kts | 124° |
| 2026-04-25 14:24 | 43.22135 | -2.75185 | 24167 ft | 430 kts | 124° |
| 2026-04-25 14:25 | 43.20526 | -2.71723 | 24166 ft | 430 kts | 124° |
| 2026-04-25 14:25 | 43.18922 | -2.68255 | 24165 ft | 430 kts | 124° |
| 2026-04-25 14:25 | 43.17325 | -2.64788 | 24165 ft | 430 kts | 124° |
| 2026-04-25 14:25 | 43.16810 | -2.63665 | 24170 ft | 430 kts | 124° |
| 2026-04-25 14:26 | 43.14165 | -2.57897 | 24163 ft | 430 kts | 124° |
| 2026-04-25 14:26 | 43.12574 | -2.54426 | 24160 ft | 430 kts | 124° |
| 2026-04-25 14:26 | 43.10981 | -2.50954 | 24163 ft | 430 kts | 124° |
| 2026-04-25 14:26 | 43.09388 | -2.47488 | 24164 ft | 430 kts | 124° |
| 2026-04-25 14:27 | 43.07785 | -2.44005 | 24154 ft | 430 kts | 124° |
| 2026-04-25 14:27 | 43.06189 | -2.40540 | 24155 ft | 430 kts | 124° |
| 2026-04-25 14:27 | 43.04609 | -2.37116 | 24155 ft | 430 kts | 124° |
| 2026-04-25 14:27 | 43.03002 | -2.33638 | 24156 ft | 430 kts | 124° |
| 2026-04-25 14:28 | 43.01398 | -2.30170 | 24147 ft | 430 kts | 124° |
| 2026-04-25 14:28 | 42.99816 | -2.26758 | 24143 ft | 430 kts | 124° |
| 2026-04-25 14:28 | 42.98208 | -2.23291 | 24144 ft | 430 kts | 124° |
| 2026-04-25 14:28 | 42.96603 | -2.19831 | 24143 ft | 430 kts | 124° |
| 2026-04-25 14:29 | 42.95001 | -2.16382 | 24143 ft | 430 kts | 124° |
| 2026-04-25 14:29 | 42.93396 | -2.12932 | 24148 ft | 430 kts | 123° |
| 2026-04-25 14:29 | 42.91789 | -2.09481 | 24145 ft | 430 kts | 123° |
| 2026-04-25 14:29 | 42.90205 | -2.06087 | 24144 ft | 429 kts | 123° |
| 2026-04-25 14:30 | 42.88600 | -2.02647 | 24143 ft | 430 kts | 124° |
| 2026-04-25 14:30 | 42.85378 | -1.95758 | 24147 ft | 430 kts | 124° |
| 2026-04-25 14:30 | 42.83764 | -1.92313 | 24131 ft | 430 kts | 124° |
| 2026-04-25 14:31 | 42.82155 | -1.88878 | 24126 ft | 430 kts | 124° |
| 2026-04-25 14:31 | 42.80554 | -1.85465 | 24127 ft | 429 kts | 124° |
| 2026-04-25 14:31 | 42.78957 | -1.82063 | 24128 ft | 430 kts | 124° |
| 2026-04-25 14:31 | 42.77342 | -1.78626 | 24133 ft | 430 kts | 124° |
| 2026-04-25 14:32 | 42.75717 | -1.75174 | 24130 ft | 431 kts | 124° |
| 2026-04-25 14:32 | 42.74126 | -1.71763 | 24127 ft | 431 kts | 122° |
| 2026-04-25 14:32 | 42.72705 | -1.68141 | 24130 ft | 431 kts | 118° |
| 2026-04-25 14:32 | 42.71352 | -1.64481 | 24127 ft | 431 kts | 118° |
| 2026-04-25 14:33 | 42.70055 | -1.60848 | 24126 ft | 432 kts | 117° |
| 2026-04-25 14:33 | 42.68760 | -1.57155 | 24132 ft | 432 kts | 117° |
| 2026-04-25 14:33 | 42.67469 | -1.53452 | 24125 ft | 432 kts | 117° |
| 2026-04-25 14:33 | 42.66191 | -1.49791 | 24124 ft | 432 kts | 117° |
| 2026-04-25 14:34 | 42.64895 | -1.46090 | 24122 ft | 432 kts | 117° |
| 2026-04-25 14:34 | 42.63595 | -1.42398 | 24121 ft | 432 kts | 117° |
| 2026-04-25 14:34 | 42.62303 | -1.38740 | 24117 ft | 432 kts | 117° |
| 2026-04-25 14:34 | 42.60997 | -1.35051 | 24111 ft | 432 kts | 117° |
| 2026-04-25 14:35 | 42.59700 | -1.31397 | 24102 ft | 431 kts | 117° |
| 2026-04-25 14:35 | 42.58397 | -1.27725 | 24097 ft | 431 kts | 117° |
| 2026-04-25 14:35 | 42.57099 | -1.24075 | 24097 ft | 431 kts | 117° |
| 2026-04-25 14:35 | 42.55787 | -1.20392 | 24092 ft | 431 kts | 117° |
| 2026-04-25 14:36 | 42.54494 | -1.16764 | 24096 ft | 430 kts | 117° |
| 2026-04-25 14:36 | 42.53183 | -1.13094 | 24098 ft | 431 kts | 117° |
| 2026-04-25 14:36 | 42.51871 | -1.09422 | 24088 ft | 431 kts | 117° |
| 2026-04-25 14:36 | 42.50576 | -1.05805 | 24089 ft | 431 kts | 117° |
| 2026-04-25 14:37 | 42.49258 | -1.02124 | 24083 ft | 431 kts | 117° |
| 2026-04-25 14:37 | 42.47964 | -0.98515 | 24084 ft | 431 kts | 117° |
| 2026-04-25 14:37 | 42.46650 | -0.94854 | 24087 ft | 431 kts | 117° |
| 2026-04-25 14:37 | 42.45337 | -0.91199 | 24093 ft | 431 kts | 117° |
| 2026-04-25 14:38 | 42.44046 | -0.87608 | 24083 ft | 430 kts | 117° |
| 2026-04-25 14:38 | 42.42724 | -0.83937 | 24091 ft | 430 kts | 117° |
| 2026-04-25 14:38 | 42.41405 | -0.80284 | 24083 ft | 430 kts | 117° |
| 2026-04-25 14:38 | 42.40086 | -0.76636 | 24083 ft | 430 kts | 117° |
| 2026-04-25 14:39 | 42.38782 | -0.73038 | 24090 ft | 431 kts | 117° |
| 2026-04-25 14:39 | 42.37458 | -0.69389 | 24093 ft | 431 kts | 117° |
| 2026-04-25 14:39 | 42.36132 | -0.65737 | 24081 ft | 431 kts | 117° |
| 2026-04-25 14:39 | 42.34813 | -0.62107 | 24098 ft | 431 kts | 117° |
| 2026-04-25 14:40 | 42.33481 | -0.58446 | 24089 ft | 432 kts | 117° |
| 2026-04-25 14:40 | 42.32154 | -0.54804 | 24101 ft | 432 kts | 117° |
| 2026-04-25 14:40 | 42.30845 | -0.51216 | 24088 ft | 431 kts | 117° |
| 2026-04-25 14:40 | 42.29517 | -0.47580 | 24092 ft | 431 kts | 117° |
| 2026-04-25 14:41 | 42.28182 | -0.43927 | 24098 ft | 431 kts | 117° |
| 2026-04-25 14:41 | 42.26853 | -0.40294 | 24087 ft | 431 kts | 117° |
| 2026-04-25 14:41 | 42.25520 | -0.36658 | 24087 ft | 431 kts | 117° |
| 2026-04-25 14:41 | 42.24200 | -0.33061 | 24099 ft | 431 kts | 117° |
| 2026-04-25 14:42 | 42.22860 | -0.29413 | 24088 ft | 431 kts | 117° |
| 2026-04-25 14:42 | 42.22427 | -0.28237 | 24091 ft | 431 kts | 117° |
| 2026-04-25 14:42 | 42.20201 | -0.22193 | 24102 ft | 431 kts | 117° |
| 2026-04-25 14:42 | 42.18864 | -0.18572 | 24089 ft | 430 kts | 117° |
| 2026-04-25 14:43 | 42.17528 | -0.14956 | 24095 ft | 430 kts | 117° |
| 2026-04-25 14:43 | 42.16193 | -0.11345 | 24104 ft | 429 kts | 117° |
| 2026-04-25 14:43 | 42.14856 | -0.07736 | 24092 ft | 429 kts | 117° |
| 2026-04-25 14:43 | 42.13521 | -0.04136 | 24098 ft | 429 kts | 117° |
| 2026-04-25 14:44 | 42.12196 | -0.00565 | 24092 ft | 429 kts | 117° |
| 2026-04-25 14:44 | 42.10857 | 0.03036 | 24075 ft | 430 kts | 117° |
| 2026-04-25 14:44 | 42.09512 | 0.06648 | 24086 ft | 431 kts | 117° |
| 2026-04-25 14:44 | 42.08164 | 0.10266 | 24088 ft | 431 kts | 117° |
| 2026-04-25 14:45 | 42.06835 | 0.13827 | 24077 ft | 430 kts | 117° |
| 2026-04-25 14:45 | 42.05490 | 0.17428 | 24089 ft | 430 kts | 117° |
| 2026-04-25 14:45 | 42.04140 | 0.21035 | 24088 ft | 431 kts | 117° |
| 2026-04-25 14:45 | 42.02786 | 0.24646 | 24083 ft | 431 kts | 117° |
| 2026-04-25 14:46 | 42.01435 | 0.28246 | 24110 ft | 431 kts | 117° |
| 2026-04-25 14:46 | 42.00089 | 0.31830 | 24548 ft | 435 kts | 117° |
| 2026-04-25 14:46 | 41.98720 | 0.35468 | 24944 ft | 434 kts | 117° |
| 2026-04-25 14:46 | 41.97364 | 0.39069 | 25069 ft | 433 kts | 117° |
| 2026-04-25 14:47 | 41.96002 | 0.42684 | 25077 ft | 433 kts | 117° |
| 2026-04-25 14:47 | 41.95557 | 0.43864 | 25080 ft | 433 kts | 117° |
| 2026-04-25 14:47 | 41.93727 | 0.48713 | 25079 ft | 433 kts | 117° |
| 2026-04-25 14:47 | 41.92380 | 0.52274 | 25079 ft | 433 kts | 117° |
| 2026-04-25 14:48 | 41.91010 | 0.55894 | 25076 ft | 433 kts | 117° |
| 2026-04-25 14:48 | 41.89640 | 0.59507 | 25075 ft | 433 kts | 117° |
| 2026-04-25 14:48 | 41.88282 | 0.63084 | 25075 ft | 433 kts | 117° |
| 2026-04-25 14:48 | 41.86910 | 0.66695 | 25076 ft | 433 kts | 117° |
| 2026-04-25 14:49 | 41.85549 | 0.70272 | 25074 ft | 433 kts | 117° |
| 2026-04-25 14:49 | 41.84173 | 0.73883 | 25076 ft | 433 kts | 117° |
| 2026-04-25 14:49 | 41.82799 | 0.77484 | 25075 ft | 433 kts | 117° |
| 2026-04-25 14:49 | 41.81432 | 0.81060 | 25077 ft | 433 kts | 117° |
| 2026-04-25 14:50 | 41.80053 | 0.84662 | 25078 ft | 433 kts | 117° |
| 2026-04-25 14:50 | 41.78670 | 0.88274 | 25079 ft | 433 kts | 117° |
| 2026-04-25 14:50 | 41.77305 | 0.91834 | 25080 ft | 433 kts | 117° |
| 2026-04-25 14:50 | 41.75919 | 0.95442 | 25081 ft | 432 kts | 117° |
| 2026-04-25 14:51 | 41.74552 | 0.98998 | 25080 ft | 431 kts | 117° |
| 2026-04-25 14:51 | 41.73174 | 1.02576 | 25079 ft | 431 kts | 117° |
| 2026-04-25 14:51 | 41.71813 | 1.06109 | 25078 ft | 431 kts | 117° |
| 2026-04-25 14:51 | 41.70433 | 1.09684 | 25084 ft | 431 kts | 117° |
| 2026-04-25 14:52 | 41.69052 | 1.13260 | 25084 ft | 431 kts | 117° |
| 2026-04-25 14:52 | 41.67672 | 1.16825 | 25084 ft | 431 kts | 117° |
| 2026-04-25 14:52 | 41.66288 | 1.20396 | 25085 ft | 432 kts | 117° |
| 2026-04-25 14:52 | 41.65371 | 1.22761 | 25093 ft | 432 kts | 117° |
| 2026-04-25 14:53 | 41.63534 | 1.27493 | 25088 ft | 432 kts | 117° |
| 2026-04-25 14:53 | 41.62142 | 1.31075 | 25090 ft | 431 kts | 117° |
| 2026-04-25 14:53 | 41.60773 | 1.34592 | 25091 ft | 431 kts | 117° |
| 2026-04-25 14:53 | 41.59385 | 1.38155 | 25100 ft | 432 kts | 117° |
| 2026-04-25 14:54 | 41.57993 | 1.41723 | 25101 ft | 432 kts | 117° |
| 2026-04-25 14:54 | 41.56598 | 1.45295 | 25103 ft | 431 kts | 117° |
| 2026-04-25 14:54 | 41.55206 | 1.48853 | 25101 ft | 431 kts | 117° |
| 2026-04-25 14:54 | 41.53828 | 1.52370 | 25100 ft | 431 kts | 117° |
| 2026-04-25 14:55 | 41.52433 | 1.55929 | 25107 ft | 430 kts | 117° |
| 2026-04-25 14:55 | 41.51056 | 1.59434 | 25106 ft | 430 kts | 117° |
| 2026-04-25 14:55 | 41.49659 | 1.62989 | 25111 ft | 430 kts | 117° |
| 2026-04-25 14:55 | 41.48261 | 1.66542 | 25109 ft | 430 kts | 117° |
| 2026-04-25 14:56 | 41.46881 | 1.70044 | 25107 ft | 430 kts | 117° |
| 2026-04-25 14:56 | 41.45487 | 1.73578 | 25110 ft | 430 kts | 117° |
| 2026-04-25 14:56 | 41.44089 | 1.77118 | 25107 ft | 430 kts | 117° |
| 2026-04-25 14:56 | 41.42692 | 1.80652 | 25109 ft | 430 kts | 117° |
| 2026-04-25 14:57 | 41.41310 | 1.84141 | 25117 ft | 430 kts | 117° |
| 2026-04-25 14:57 | 41.39910 | 1.87674 | 25107 ft | 430 kts | 117° |
| 2026-04-25 14:57 | 41.38505 | 1.91212 | 25104 ft | 430 kts | 117° |
| 2026-04-25 14:57 | 41.37116 | 1.94710 | 25104 ft | 431 kts | 117° |
| 2026-04-25 14:58 | 41.35709 | 1.98247 | 25104 ft | 431 kts | 117° |
| 2026-04-25 14:58 | 41.34298 | 2.01790 | 25104 ft | 431 kts | 117° |
| 2026-04-25 14:58 | 41.32904 | 2.05287 | 25107 ft | 432 kts | 117° |
| 2026-04-25 14:58 | 41.31305 | 2.08675 | 25103 ft | 431 kts | 128° |
| 2026-04-25 14:59 | 41.29194 | 2.11501 | 25101 ft | 431 kts | 142° |
| 2026-04-25 14:59 | 41.26727 | 2.13686 | 25104 ft | 431 kts | 148° |
| 2026-04-25 14:59 | 41.24120 | 2.15699 | 25101 ft | 431 kts | 150° |
| 2026-04-25 14:59 | 41.21495 | 2.17663 | 25103 ft | 431 kts | 150° |
| 2026-04-25 15:00 | 41.18871 | 2.19614 | 25105 ft | 432 kts | 150° |
| 2026-04-25 15:00 | 41.16248 | 2.21562 | 25106 ft | 432 kts | 150° |
| 2026-04-25 15:00 | 41.13654 | 2.23488 | 25114 ft | 432 kts | 150° |
| 2026-04-25 15:00 | 41.11026 | 2.25438 | 25111 ft | 432 kts | 150° |
| 2026-04-25 15:01 | 41.08400 | 2.27386 | 25117 ft | 432 kts | 150° |
| 2026-04-25 15:01 | 41.05773 | 2.29333 | 25121 ft | 431 kts | 150° |
| 2026-04-25 15:01 | 41.03147 | 2.31277 | 25125 ft | 432 kts | 150° |
| 2026-04-25 15:01 | 41.00537 | 2.33208 | 25126 ft | 433 kts | 150° |
| 2026-04-25 15:02 | 40.97850 | 2.35194 | 24965 ft | 446 kts | 150° |
| 2026-04-25 15:02 | 40.95147 | 2.37191 | 24730 ft | 450 kts | 150° |
| 2026-04-25 15:02 | 40.92407 | 2.39212 | 24488 ft | 449 kts | 150° |
| 2026-04-25 15:02 | 40.89681 | 2.41221 | 24257 ft | 448 kts | 150° |
| 2026-04-25 15:03 | 40.86980 | 2.43210 | 24031 ft | 447 kts | 150° |
| 2026-04-25 15:03 | 40.84261 | 2.45210 | 23806 ft | 445 kts | 150° |
| 2026-04-25 15:03 | 40.81550 | 2.47202 | 23553 ft | 444 kts | 150° |
| 2026-04-25 15:03 | 40.78848 | 2.49186 | 23281 ft | 442 kts | 150° |
| 2026-04-25 15:04 | 40.76188 | 2.51138 | 23016 ft | 441 kts | 150° |
| 2026-04-25 15:04 | 40.73512 | 2.53099 | 22747 ft | 439 kts | 150° |
| 2026-04-25 15:04 | 40.70826 | 2.55065 | 22484 ft | 437 kts | 150° |
| 2026-04-25 15:04 | 40.68208 | 2.56980 | 22226 ft | 435 kts | 150° |
| 2026-04-25 15:05 | 40.65564 | 2.58913 | 21960 ft | 433 kts | 150° |
| 2026-04-25 15:05 | 40.62932 | 2.60835 | 21711 ft | 431 kts | 150° |
| 2026-04-25 15:05 | 40.60309 | 2.62749 | 21466 ft | 429 kts | 150° |
| 2026-04-25 15:06 | 40.55136 | 2.66517 | 20740 ft | 419 kts | 150° |
| 2026-04-25 15:06 | 40.52588 | 2.68371 | 20287 ft | 419 kts | 150° |
| 2026-04-25 15:06 | 40.50023 | 2.70236 | 20137 ft | 422 kts | 150° |
| 2026-04-25 15:06 | 40.47454 | 2.72103 | 19958 ft | 419 kts | 150° |
| 2026-04-25 15:07 | 40.44922 | 2.73939 | 19134 ft | 414 kts | 150° |
| 2026-04-25 15:07 | 40.42374 | 2.75787 | 17807 ft | 420 kts | 150° |
| 2026-04-25 15:07 | 40.39826 | 2.77633 | 16631 ft | 420 kts | 149° |
| 2026-04-25 15:07 | 40.37283 | 2.79472 | 15809 ft | 410 kts | 149° |
| 2026-04-25 15:08 | 40.34813 | 2.81256 | 15168 ft | 397 kts | 149° |
| 2026-04-25 15:08 | 40.32450 | 2.82962 | 14529 ft | 387 kts | 149° |
| 2026-04-25 15:08 | 40.30119 | 2.84644 | 14030 ft | 374 kts | 149° |
| 2026-04-25 15:08 | 40.27939 | 2.86212 | 13869 ft | 340 kts | 148° |
| 2026-04-25 15:09 | 40.25954 | 2.87639 | 13599 ft | 310 kts | 148° |
| 2026-04-25 15:09 | 40.24132 | 2.88950 | 13328 ft | 287 kts | 148° |
| 2026-04-25 15:09 | 40.20842 | 2.91322 | 12783 ft | 260 kts | 148° |
| 2026-04-25 15:10 | 40.19258 | 2.92467 | 12517 ft | 260 kts | 148° |
| 2026-04-25 15:10 | 40.17680 | 2.93606 | 12207 ft | 258 kts | 148° |
| 2026-04-25 15:10 | 40.14583 | 2.95833 | 11507 ft | 253 kts | 149° |
| 2026-04-25 15:11 | 40.13035 | 2.96947 | 11163 ft | 253 kts | 149° |
| 2026-04-25 15:11 | 40.11496 | 2.98059 | 10825 ft | 251 kts | 149° |
| 2026-04-25 15:11 | 40.09968 | 2.99167 | 10484 ft | 250 kts | 149° |
| 2026-04-25 15:12 | 40.06951 | 3.01353 | 9810 ft | 248 kts | 149° |
| 2026-04-25 15:12 | 40.05475 | 3.02501 | 9434 ft | 245 kts | 138° |
| 2026-04-25 15:12 | 40.04446 | 3.04182 | 9090 ft | 239 kts | 117° |
| 2026-04-25 15:12 | 40.04185 | 3.04832 | 8966 ft | 238 kts | 114° |
| 2026-04-25 15:13 | 40.03042 | 3.08099 | 8387 ft | 237 kts | 112° |
| 2026-04-25 15:13 | 40.01725 | 3.12043 | 7695 ft | 235 kts | 112° |
| 2026-04-25 15:13 | 40.01080 | 3.14003 | 7353 ft | 234 kts | 112° |
| 2026-04-25 15:14 | 40.00313 | 3.15813 | 7116 ft | 226 kts | 126° |
| 2026-04-25 15:14 | 39.99301 | 3.17334 | 7124 ft | 220 kts | 131° |
| 2026-04-25 15:14 | 39.98272 | 3.18730 | 7151 ft | 206 kts | 132° |
| 2026-04-25 15:14 | 39.97291 | 3.20052 | 7131 ft | 200 kts | 131° |
| 2026-04-25 15:15 | 39.96339 | 3.21334 | 7129 ft | 199 kts | 132° |
| 2026-04-25 15:15 | 39.95374 | 3.22647 | 7128 ft | 199 kts | 132° |
| 2026-04-25 15:15 | 39.94407 | 3.23946 | 7125 ft | 199 kts | 133° |
| 2026-04-25 15:15 | 39.93245 | 3.24911 | 7122 ft | 202 kts | 163° |
| 2026-04-25 15:16 | 39.91835 | 3.25066 | 7135 ft | 204 kts | 179° |
| 2026-04-25 15:16 | 39.90414 | 3.24981 | 7130 ft | 204 kts | 181° |
| 2026-04-25 15:16 | 39.87575 | 3.24727 | 7119 ft | 205 kts | 182° |
| 2026-04-25 15:17 | 39.84744 | 3.24480 | 7119 ft | 205 kts | 182° |
| 2026-04-25 15:17 | 39.83314 | 3.24338 | 7124 ft | 206 kts | 185° |
| 2026-04-25 15:17 | 39.81971 | 3.23706 | 7047 ft | 208 kts | 208° |
| 2026-04-25 15:18 | 39.80764 | 3.22673 | 6818 ft | 207 kts | 217° |
| 2026-04-25 15:18 | 39.78737 | 3.20060 | 6335 ft | 206 kts | 231° |
| 2026-04-25 15:18 | 39.77856 | 3.18580 | 6146 ft | 205 kts | 232° |
| 2026-04-25 15:19 | 39.77001 | 3.17114 | 6122 ft | 205 kts | 232° |
| 2026-04-25 15:19 | 39.76710 | 3.16611 | 6115 ft | 206 kts | 232° |
| 2026-04-25 15:19 | 39.75283 | 3.14130 | 6055 ft | 205 kts | 231° |
| 2026-04-25 15:19 | 39.74435 | 3.12620 | 5678 ft | 207 kts | 232° |
| 2026-04-25 15:20 | 39.73866 | 3.11612 | 5411 ft | 208 kts | 232° |
| 2026-04-25 15:20 | 39.72745 | 3.09634 | 4890 ft | 202 kts | 231° |
| 2026-04-25 15:20 | 39.71912 | 3.08158 | 4469 ft | 201 kts | 232° |
| 2026-04-25 15:20 | 39.71084 | 3.06705 | 4045 ft | 199 kts | 232° |
| 2026-04-25 15:21 | 39.70271 | 3.05289 | 3627 ft | 196 kts | 232° |
| 2026-04-25 15:21 | 39.69438 | 3.03881 | 3287 ft | 195 kts | 232° |
| 2026-04-25 15:21 | 39.68614 | 3.02502 | 3038 ft | 193 kts | 232° |
| 2026-04-25 15:21 | 39.67842 | 3.01082 | 2847 ft | 192 kts | 236° |
| 2026-04-25 15:22 | 39.67138 | 2.99597 | 2797 ft | 193 kts | 238° |
| 2026-04-25 15:22 | 39.66458 | 2.98121 | 2711 ft | 192 kts | 238° |
| 2026-04-25 15:22 | 39.65775 | 2.96631 | 2616 ft | 191 kts | 238° |
| 2026-04-25 15:22 | 39.65095 | 2.95144 | 2524 ft | 190 kts | 238° |
| 2026-04-25 15:23 | 39.64348 | 2.93734 | 2520 ft | 189 kts | 231° |
| 2026-04-25 15:23 | 39.63536 | 2.92387 | 2510 ft | 189 kts | 230° |
| 2026-04-25 15:23 | 39.62682 | 2.91084 | 2510 ft | 189 kts | 230° |
| 2026-04-25 15:23 | 39.61974 | 2.89676 | 2480 ft | 187 kts | 238° |
| 2026-04-25 15:24 | 39.61287 | 2.88257 | 2217 ft | 186 kts | 234° |
| 2026-04-25 15:24 | 39.60578 | 2.86838 | 1933 ft | 188 kts | 236° |
| 2026-04-25 15:24 | 39.59891 | 2.85387 | 1680 ft | 188 kts | 236° |
| 2026-04-25 15:24 | 39.59662 | 2.84898 | 1571 ft | 186 kts | 235° |
| 2026-04-25 15:25 | 39.58620 | 2.82694 | 1213 ft | 154 kts | 236° |
| 2026-04-25 15:25 | 39.58094 | 2.81581 | 1009 ft | 139 kts | 236° |
| 2026-04-25 15:25 | 39.57609 | 2.80550 | 826 ft | 127 kts | 236° |
| 2026-04-25 15:25 | 39.57172 | 2.79623 | 662 ft | 115 kts | 237° |
| 2026-04-25 15:26 | 39.56761 | 2.78746 | 546 ft | 115 kts | 239° |
| 2026-04-25 15:26 | 39.56347 | 2.77863 | 362 ft | 114 kts | 239° |
| 2026-04-25 15:26 | 39.55929 | 2.76982 | 239 ft | 113 kts | 238° |
| 2026-04-25 15:26 | 39.55524 | 2.76127 | 65 ft | 110 kts | 239° |
| 2026-04-25 15:27 | 39.55175 | 2.75386 | 41 ft | 73 kts | 239° |
| 2026-04-25 15:27 | 39.54999 | 2.75009 | 40 ft | 32 kts | 238° |
| 2026-04-25 15:27 | 39.54839 | 2.74636 | 41 ft | 20 kts | 254° |
| 2026-04-25 15:28 | 39.54808 | 2.74462 | 41 ft | 19 kts | 263° |
| 2026-04-25 15:28 | 39.54804 | 2.74341 | 41 ft | 11 kts | 267° |
| 2026-04-25 15:28 | 39.54802 | 2.74270 | 41 ft | 0 kts | 268° |
| 2026-04-25 15:31 | 39.54802 | 2.74265 | 41 ft | 2 kts | 268° |
| 2026-04-25 15:31 | 39.54802 | 2.74253 | 41 ft | 0 kts | 269° |
| 2026-04-25 15:32 | 39.54802 | 2.74251 | 41 ft | 1 kts | 269° |
| 2026-04-25 15:33 | 39.54802 | 2.74233 | 41 ft | 0 kts | 269° |
| 2026-04-25 15:33 | 39.54802 | 2.74232 | 41 ft | 1 kts | 269° |
| 2026-04-25 15:34 | 39.54801 | 2.74212 | 41 ft | 3 kts | 261° |
| 2026-04-25 15:34 | 39.54795 | 2.74172 | 41 ft | 6 kts | 255° |
| 2026-04-25 15:34 | 39.54780 | 2.74113 | 41 ft | 8 kts | 250° |
| 2026-04-25 15:34 | 39.54761 | 2.74069 | 41 ft | 9 kts | 239° |
| 2026-04-25 15:35 | 39.54661 | 2.73854 | 41 ft | 15 kts | 237° |
| 2026-04-25 15:35 | 39.54602 | 2.73734 | 41 ft | 12 kts | 239° |
| 2026-04-25 15:35 | 39.54583 | 2.73692 | 41 ft | 6 kts | 240° |
| 2026-04-25 15:36 | 39.54516 | 2.73552 | 41 ft | 12 kts | 238° |
| 2026-04-25 15:36 | 39.54467 | 2.73450 | 41 ft | 15 kts | 238° |
| 2026-04-25 15:36 | 39.54413 | 2.73331 | 41 ft | 17 kts | 239° |
| 2026-04-25 15:37 | 39.54396 | 2.73233 | 41 ft | 5 kts | 293° |
| 2026-04-25 15:37 | 39.54415 | 2.73222 | 40 ft | 3 kts | 356° |
| 2026-04-25 15:37 | 39.54447 | 2.73229 | 41 ft | 6 kts | 13° |
| 2026-04-25 15:37 | 39.54491 | 2.73235 | 41 ft | 5 kts | 347° |
| 2026-04-25 15:38 | 39.54511 | 2.73229 | 41 ft | 2 kts | 347° |
| 2026-04-25 15:38 | 39.54513 | 2.73228 | 41 ft | 0 kts | 347° |